»·PEaware :: N478GF L88-KSBP

N478GF :: L88-KSBP

FLIGHT INFORMATION

Flight Status: Arrived
Operator: Privately registered:
United States
More flights under this callsign
Pilot: Aaron H. (20539)
Aircraft: CESSNA 172 SKYHAWK
(C172)
More flights by this aircraft type
Origin: L88 New Cuyama
United States
Destination: KSBP San Luis Co Regl
United States
More flights between these airports :: More routes between these airports
Route:
File this flight plan on PilotEdge
Remarks:
Altitude:
(Current/Filed)
5,500ft
Speed:
(Current/Filed)
130kts
Departed: 25-Sep-18 04:55 PM
Arrived: 25-Sep-18 05:28 PM
Distance/Time
Traveled:
50nm/0:33
Distance/Time
To Go:
Arrived

Flight Plot

Page will automatically refresh every two minutes.


Map Options




Map Legend


Flown Route
Filed Route
Departure Airport
Arrival Airport
Navaid (VOR, NDB)
Fix

Horizontal Profiles

Position Reports

Time Latitude Longitude Heading Altitude Ground
Speed
25-Sep-18 16:44 35.238487 -120.640034 304 190ft 0kts
25-Sep-18 16:45 35.238393 -120.640118 304 190ft 0kts
25-Sep-18 16:46 35.238394 -120.640119 304 190ft 0kts
25-Sep-18 16:47 35.238394 -120.640119 304 190ft 0kts
25-Sep-18 16:48 35.238394 -120.640119 304 190ft 0kts
25-Sep-18 16:49 35.238394 -120.640119 304 190ft 0kts
25-Sep-18 16:50 35.238394 -120.640119 304 190ft 0kts
25-Sep-18 16:51 35.238123 -120.640451 156 189ft 1kts
25-Sep-18 16:52 35.236945 -120.638398 126 197ft 11kts
25-Sep-18 16:53 35.235074 -120.635115 126 210ft 11kts
25-Sep-18 16:54 35.233237 -120.632369 203 212ft 0kts
25-Sep-18 16:55 35.233237 -120.632369 203 212ft 0kts
25-Sep-18 16:56 35.233778 -120.634771 301 209ft 35kts
25-Sep-18 16:57 35.240570 -120.656088 223 835ft 91kts
25-Sep-18 16:58 35.220551 -120.656470 112 1038ft 105kts
25-Sep-18 16:59 35.214062 -120.623094 134 1071ft 86kts
25-Sep-18 17:00 35.222360 -120.614423 308 735ft 71kts
25-Sep-18 17:01 35.233226 -120.633783 303 243ft 63kts
25-Sep-18 17:02 35.244472 -120.651435 314 635ft 82kts
25-Sep-18 17:03 35.229450 -120.672377 187 990ft 112kts
25-Sep-18 17:04 35.212244 -120.645161 97 919ft 107kts
25-Sep-18 17:05 35.203544 -120.615165 90 1026ft 84kts
25-Sep-18 17:06 35.220608 -120.611090 296 665ft 83kts
25-Sep-18 17:07 35.232022 -120.631690 302 326ft 65kts
25-Sep-18 17:08 35.242619 -120.649782 305 455ft 84kts
25-Sep-18 17:09 35.231878 -120.666029 152 1025ft 101kts
25-Sep-18 17:10 35.214648 -120.637391 126 965ft 105kts
25-Sep-18 17:11 35.208211 -120.612321 38 864ft 82kts
25-Sep-18 17:12 35.224525 -120.618497 303 659ft 71kts
25-Sep-18 17:13 35.233490 -120.634263 303 246ft 61kts
25-Sep-18 17:14 35.241865 -120.656858 231 869ft 86kts
25-Sep-18 17:15 35.220746 -120.666943 146 1206ft 115kts
25-Sep-18 17:16 35.207271 -120.633176 116 1065ft 102kts
25-Sep-18 17:17 35.205440 -120.608318 38 1001ft 78kts
25-Sep-18 17:18 35.221077 -120.612105 305 900ft 63kts
25-Sep-18 17:19 35.230636 -120.629198 304 436ft 53kts
25-Sep-18 17:20 35.238756 -120.643556 304 237ft 66kts
25-Sep-18 17:21 35.231969 -120.662257 172 1126ft 108kts
25-Sep-18 17:22 35.212858 -120.630236 129 1040ft 103kts
25-Sep-18 17:23 35.200208 -120.605179 36 1053ft 83kts
25-Sep-18 17:24 35.218618 -120.607479 305 913ft 65kts
25-Sep-18 17:25 35.228482 -120.625244 303 509ft 59kts
25-Sep-18 17:26 35.237588 -120.641599 302 257ft 67kts
25-Sep-18 17:27 35.231862 -120.656851 136 1039ft 114kts
25-Sep-18 17:28 35.216473 -120.625372 43 823ft 96kts
25-Sep-18 17:29 35.232138 -120.631898 303 336ft 56kts
25-Sep-18 17:30 35.237403 -120.639920 11 191ft 8kts
25-Sep-18 17:31 35.237932 -120.639926 359 191ft 10kts
25-Sep-18 17:32 35.238557 -120.639658 271 192ft 0kts
25-Sep-18 17:33 35.238557 -120.639658 271 192ft 0kts
25-Sep-18 17:34 35.238557 -120.639658 271 192ft 0kts
25-Sep-18 17:35 35.238557 -120.639658 271 192ft 0kts
25-Sep-18 17:36 35.238557 -120.639658 271 192ft 0kts
25-Sep-18 17:37 35.238557 -120.639658 271 192ft 0kts
25-Sep-18 17:38 35.238557 -120.639658 271 192ft 0kts
25-Sep-18 17:39 35.238557 -120.639658 271 192ft 0kts
25-Sep-18 17:40 35.238557 -120.639658 271 192ft 0kts
25-Sep-18 17:41 35.238557 -120.639658 271 192ft 0kts
25-Sep-18 17:42 35.238557 -120.639658 271 192ft 0kts
25-Sep-18 17:43 35.238557 -120.639658 271 192ft 0kts
25-Sep-18 17:44 35.238557 -120.639658 271 192ft 0kts

Navigation Log

Ident Type
1. L88 Airport
2. KSBP Airport